createdAt,value
2018-02-09T18:37:40.721Z,37.60
2018-02-09T18:40:07.761Z,33.90
2018-02-09T18:42:34.021Z,34.20
2018-02-09T18:45:00.252Z,33.90
2018-02-09T18:47:26.884Z,33.10
2018-02-09T18:49:53.137Z,31.60
2018-02-09T18:52:19.367Z,30.40
2018-02-09T18:54:46.358Z,29.40
2018-02-09T18:59:51.026Z,35.20
2018-02-09T19:02:17.263Z,35.90
2018-02-09T19:04:43.534Z,36.10
2018-02-09T19:07:11.139Z,36.30
2018-02-09T19:09:37.398Z,36.20
2018-02-09T19:12:03.638Z,36.20
2018-02-09T19:14:29.864Z,36.10
2018-02-09T19:16:56.139Z,36.20
2018-02-09T19:19:22.375Z,36.30
2018-02-09T19:21:48.594Z,36.40
2018-02-09T19:24:14.839Z,36.50
2018-02-09T19:26:41.300Z,36.30
2018-02-09T19:29:07.544Z,36.50
2018-02-09T19:31:33.795Z,36.40
2018-02-09T19:34:00.016Z,36.50
2018-02-09T19:36:26.265Z,36.50
2018-02-09T19:38:52.498Z,36.50
2018-02-09T19:41:18.755Z,36.50
2018-02-09T19:43:45.036Z,36.50
2018-02-09T19:46:12.045Z,36.50
2018-02-09T19:48:38.289Z,36.50
2018-02-09T19:51:04.510Z,36.50
2018-02-09T19:53:31.832Z,36.40
2018-02-09T19:55:58.527Z,36.30
2018-02-09T19:58:25.623Z,36.40
2018-02-09T20:00:51.906Z,36.40
2018-02-09T20:03:18.342Z,36.40
2018-02-09T20:05:44.593Z,36.40
2018-02-09T20:08:10.828Z,36.50
2018-02-09T20:10:37.067Z,36.50
2018-02-09T20:13:03.731Z,36.50
2018-02-09T20:15:30.400Z,37.00
2018-02-09T20:17:56.671Z,36.60
2018-02-09T20:20:22.994Z,36.70
2018-02-09T20:22:49.399Z,36.80
2018-02-09T20:25:15.672Z,36.90
2018-02-09T20:27:41.903Z,37.00
2018-02-09T20:30:08.165Z,37.00
2018-02-09T20:32:34.479Z,37.00
2018-02-09T20:35:00.774Z,37.20
2018-02-09T20:37:27.216Z,37.30
2018-02-09T20:39:53.468Z,37.40
2018-02-09T20:42:19.702Z,36.70
2018-02-09T20:44:46.228Z,36.70
2018-02-09T20:47:12.971Z,36.60
2018-02-09T20:49:39.718Z,36.70
2018-02-09T20:52:06.672Z,36.70
2018-02-09T20:54:32.946Z,36.80
2018-02-09T20:56:59.925Z,36.80
2018-02-09T20:59:27.014Z,36.80
2018-02-09T21:01:53.757Z,37.00
2018-02-09T21:04:20.021Z,36.90
2018-02-09T21:06:46.252Z,37.00
2018-02-09T21:09:12.538Z,37.00
2018-02-09T21:11:38.777Z,36.90
2018-02-09T21:14:05.191Z,37.10
2018-02-09T21:16:31.626Z,37.60
2018-02-09T21:18:57.877Z,37.20
2018-02-09T21:21:24.890Z,37.30
2018-02-09T21:23:51.142Z,37.30
2018-02-09T21:26:17.422Z,37.30
2018-02-09T21:28:44.433Z,37.60
2018-02-09T21:31:10.686Z,37.50
2018-02-09T21:33:37.944Z,37.40
2018-02-09T21:36:04.981Z,36.50
2018-02-09T21:38:31.223Z,36.00
2018-02-09T21:40:58.216Z,35.80
2018-02-09T21:43:24.474Z,35.80
2018-02-09T21:45:50.702Z,35.40
2018-02-09T21:48:16.947Z,35.30
2018-02-09T21:50:43.463Z,35.30
2018-02-09T21:53:09.691Z,35.20
2018-02-09T21:55:35.941Z,35.40
2018-02-09T21:58:02.205Z,36.10
2018-02-09T22:00:28.467Z,35.90
2018-02-09T22:02:54.707Z,36.10
2018-02-09T22:05:20.957Z,36.10
2018-02-09T22:07:47.213Z,36.20
2018-02-09T22:10:13.464Z,36.10
2018-02-09T22:12:39.712Z,36.10
2018-02-09T22:15:05.957Z,36.20
2018-02-09T22:17:32.211Z,36.30
2018-02-09T22:19:58.435Z,36.30
2018-02-09T22:22:24.659Z,36.40
2018-02-09T22:24:50.914Z,36.30
2018-02-09T22:27:17.153Z,36.30
2018-02-09T22:29:43.374Z,36.30
2018-02-09T22:32:09.622Z,36.30
2018-02-09T22:34:36.259Z,36.30
2018-02-09T22:37:02.739Z,36.10
2018-02-09T22:39:28.989Z,36.10
2018-02-09T22:41:55.229Z,36.00
2018-02-09T22:44:21.747Z,36.10
2018-02-09T22:46:48.190Z,36.30
2018-02-09T22:49:14.441Z,36.20
2018-02-09T22:51:40.702Z,36.20
2018-02-09T22:54:06.936Z,36.20
2018-02-09T22:56:33.893Z,36.20
2018-02-09T22:59:00.153Z,36.20
2018-02-09T23:01:26.817Z,36.20
2018-02-09T23:03:53.075Z,36.20
2018-02-09T23:06:19.298Z,36.20
2018-02-09T23:08:45.577Z,36.20
2018-02-09T23:11:12.438Z,36.20
2018-02-09T23:13:38.683Z,36.20
2018-02-09T23:16:04.918Z,36.20
2018-02-09T23:18:31.754Z,36.30
2018-02-09T23:20:58.014Z,36.20
2018-02-09T23:23:24.269Z,36.20
2018-02-09T23:25:50.545Z,36.20
2018-02-09T23:28:16.789Z,36.20
2018-02-09T23:30:43.010Z,36.30
2018-02-09T23:33:10.014Z,36.30
2018-02-09T23:35:36.257Z,36.30
2018-02-09T23:38:02.496Z,36.30
2018-02-09T23:40:28.728Z,36.30
2018-02-09T23:42:55.416Z,36.30
2018-02-09T23:45:21.679Z,36.20
2018-02-09T23:47:48.662Z,36.40
2018-02-09T23:50:14.901Z,36.20
2018-02-09T23:52:41.511Z,36.30
2018-02-09T23:55:07.757Z,36.20
2018-02-09T23:57:34.773Z,36.30
